sensor_id;sensor_type;location;lat;lon;timestamp;temperature;humidity
20973;DHT22;10645;52.370;13.314;2024-03-02T00:00:07;5.50;99.90
20973;DHT22;10645;52.370;13.314;2024-03-02T00:02:47;5.50;99.90
20973;DHT22;10645;52.370;13.314;2024-03-02T00:05:18;5.50;99.90
20973;DHT22;10645;52.370;13.314;2024-03-02T00:07:47;5.60;99.90
20973;DHT22;10645;52.370;13.314;2024-03-02T00:10:21;5.60;99.90
20973;DHT22;10645;52.370;13.314;2024-03-02T00:12:51;5.60;99.90
20973;DHT22;10645;52.370;13.314;2024-03-02T00:18:11;5.60;99.90
20973;DHT22;10645;52.370;13.314;2024-03-02T00:20:39;5.60;99.90
20973;DHT22;10645;52.370;13.314;2024-03-02T00:23:07;5.70;99.90
20973;DHT22;10645;52.370;13.314;2024-03-02T00:25:41;5.70;99.90
20973;DHT22;10645;52.370;13.314;2024-03-02T00:28:25;5.70;99.90
20973;DHT22;10645;52.370;13.314;2024-03-02T00:31:04;5.70;99.90
20973;DHT22;10645;52.370;13.314;2024-03-02T00:33:35;5.70;99.90
20973;DHT22;10645;52.370;13.314;2024-03-02T00:36:03;5.80;99.90
20973;DHT22;10645;52.370;13.314;2024-03-02T00:38:33;5.80;99.90
20973;DHT22;10645;52.370;13.314;2024-03-02T00:41:11;5.80;99.90
20973;DHT22;10645;52.370;13.314;2024-03-02T00:43:52;5.80;99.90
20973;DHT22;10645;52.370;13.314;2024-03-02T00:46:21;5.80;99.90
20973;DHT22;10645;52.370;13.314;2024-03-02T00:49:00;5.90;99.90
20973;DHT22;10645;52.370;13.314;2024-03-02T00:51:31;5.90;99.90
20973;DHT22;10645;52.370;13.314;2024-03-02T00:54:03;5.90;99.90
20973;DHT22;10645;52.370;13.314;2024-03-02T00:56:30;6.00;99.90
20973;DHT22;10645;52.370;13.314;2024-03-02T00:58:56;5.90;99.90
20973;DHT22;10645;52.370;13.314;2024-03-02T01:01:22;6.00;99.90
20973;DHT22;10645;52.370;13.314;2024-03-02T01:03:49;6.00;99.90
20973;DHT22;10645;52.370;13.314;2024-03-02T01:06:16;6.00;99.90
20973;DHT22;10645;52.370;13.314;2024-03-02T01:08:43;6.10;99.90
20973;DHT22;10645;52.370;13.314;2024-03-02T01:11:09;6.10;99.90
20973;DHT22;10645;52.370;13.314;2024-03-02T01:13:35;6.10;99.90
20973;DHT22;10645;52.370;13.314;2024-03-02T01:16:02;6.20;99.90
20973;DHT22;10645;52.370;13.314;2024-03-02T01:18:28;6.20;99.90
20973;DHT22;10645;52.370;13.314;2024-03-02T01:20:54;6.20;99.90
20973;DHT22;10645;52.370;13.314;2024-03-02T01:23:24;6.20;99.90
20973;DHT22;10645;52.370;13.314;2024-03-02T01:25:51;6.20;99.90
20973;DHT22;10645;52.370;13.314;2024-03-02T01:28:18;6.30;99.90
20973;DHT22;10645;52.370;13.314;2024-03-02T01:30:45;6.30;99.90
20973;DHT22;10645;52.370;13.314;2024-03-02T01:33:11;6.30;99.90
20973;DHT22;10645;52.370;13.314;2024-03-02T01:35:37;6.40;99.90
20973;DHT22;10645;52.370;13.314;2024-03-02T01:38:03;6.40;99.90
20973;DHT22;10645;52.370;13.314;2024-03-02T01:40:34;6.40;99.90
20973;DHT22;10645;52.370;13.314;2024-03-02T01:43:00;6.40;99.90
20973;DHT22;10645;52.370;13.314;2024-03-02T01:45:28;6.30;99.90
20973;DHT22;10645;52.370;13.314;2024-03-02T01:47:54;6.30;99.90
20973;DHT22;10645;52.370;13.314;2024-03-02T01:50:31;6.30;99.90
20973;DHT22;10645;52.370;13.314;2024-03-02T01:52:58;6.20;99.90
20973;DHT22;10645;52.370;13.314;2024-03-02T01:55:25;6.30;99.90
20973;DHT22;10645;52.370;13.314;2024-03-02T01:57:52;6.20;99.90
20973;DHT22;10645;52.370;13.314;2024-03-02T02:00:19;6.20;99.90
20973;DHT22;10645;52.370;13.314;2024-03-02T02:02:46;6.20;99.90
20973;DHT22;10645;52.370;13.314;2024-03-02T02:05:13;6.10;99.90
20973;DHT22;10645;52.370;13.314;2024-03-02T02:07:41;6.10;99.90
20973;DHT22;10645;52.370;13.314;2024-03-02T02:10:08;6.10;99.90
20973;DHT22;10645;52.370;13.314;2024-03-02T02:12:35;6.00;99.90
20973;DHT22;10645;52.370;13.314;2024-03-02T02:15:01;5.90;99.90
20973;DHT22;10645;52.370;13.314;2024-03-02T02:17:27;5.80;99.90
20973;DHT22;10645;52.370;13.314;2024-03-02T02:19:53;5.80;99.90
20973;DHT22;10645;52.370;13.314;2024-03-02T02:22:19;5.70;99.90
20973;DHT22;10645;52.370;13.314;2024-03-02T02:24:45;5.70;99.90
20973;DHT22;10645;52.370;13.314;2024-03-02T02:27:11;5.70;99.90
20973;DHT22;10645;52.370;13.314;2024-03-02T02:29:40;5.80;99.90
20973;DHT22;10645;52.370;13.314;2024-03-02T02:32:06;5.80;99.90
20973;DHT22;10645;52.370;13.314;2024-03-02T02:34:33;5.80;99.90
20973;DHT22;10645;52.370;13.314;2024-03-02T02:36:59;5.80;99.90
20973;DHT22;10645;52.370;13.314;2024-03-02T02:39:25;5.80;99.90
20973;DHT22;10645;52.370;13.314;2024-03-02T02:41:52;5.80;99.90
20973;DHT22;10645;52.370;13.314;2024-03-02T02:44:18;5.80;99.90
20973;DHT22;10645;52.370;13.314;2024-03-02T02:46:44;5.80;99.90
20973;DHT22;10645;52.370;13.314;2024-03-02T02:49:10;5.80;99.90
20973;DHT22;10645;52.370;13.314;2024-03-02T02:51:36;5.90;99.90
20973;DHT22;10645;52.370;13.314;2024-03-02T02:54:02;5.90;99.90
20973;DHT22;10645;52.370;13.314;2024-03-02T02:56:28;6.00;99.90
20973;DHT22;10645;52.370;13.314;2024-03-02T02:58:54;6.00;99.90
20973;DHT22;10645;52.370;13.314;2024-03-02T03:01:20;6.10;99.90
20973;DHT22;10645;52.370;13.314;2024-03-02T03:03:47;6.10;99.90
20973;DHT22;10645;52.370;13.314;2024-03-02T03:06:13;6.10;99.90
20973;DHT22;10645;52.370;13.314;2024-03-02T03:08:39;6.20;99.90
20973;DHT22;10645;52.370;13.314;2024-03-02T03:11:05;6.30;99.90
20973;DHT22;10645;52.370;13.314;2024-03-02T03:13:32;6.30;99.90
20973;DHT22;10645;52.370;13.314;2024-03-02T03:15:58;6.40;99.90
20973;DHT22;10645;52.370;13.314;2024-03-02T03:18:24;6.40;99.90
20973;DHT22;10645;52.370;13.314;2024-03-02T03:20:50;6.50;99.90
20973;DHT22;10645;52.370;13.314;2024-03-02T03:23:16;6.60;99.90
20973;DHT22;10645;52.370;13.314;2024-03-02T03:25:43;6.60;99.90
20973;DHT22;10645;52.370;13.314;2024-03-02T03:28:09;6.60;99.90
20973;DHT22;10645;52.370;13.314;2024-03-02T03:30:37;6.70;99.90
20973;DHT22;10645;52.370;13.314;2024-03-02T03:33:04;6.70;99.90
20973;DHT22;10645;52.370;13.314;2024-03-02T03:35:32;6.70;99.90
20973;DHT22;10645;52.370;13.314;2024-03-02T03:37:58;6.70;99.90
20973;DHT22;10645;52.370;13.314;2024-03-02T03:40:24;6.70;99.90
20973;DHT22;10645;52.370;13.314;2024-03-02T03:42:51;6.80;99.90
20973;DHT22;10645;52.370;13.314;2024-03-02T03:45:17;6.80;99.90
20973;DHT22;10645;52.370;13.314;2024-03-02T03:47:43;6.80;99.90
20973;DHT22;10645;52.370;13.314;2024-03-02T03:50:09;6.90;99.90
20973;DHT22;10645;52.370;13.314;2024-03-02T03:52:35;6.80;99.90
20973;DHT22;10645;52.370;13.314;2024-03-02T03:55:02;6.90;99.90
20973;DHT22;10645;52.370;13.314;2024-03-02T03:57:28;6.90;99.90
20973;DHT22;10645;52.370;13.314;2024-03-02T03:59:54;6.90;99.90
20973;DHT22;10645;52.370;13.314;2024-03-02T04:02:20;6.90;99.90
20973;DHT22;10645;52.370;13.314;2024-03-02T04:04:46;6.90;99.90
20973;DHT22;10645;52.370;13.314;2024-03-02T04:07:12;6.90;99.90
20973;DHT22;10645;52.370;13.314;2024-03-02T04:09:38;6.80;99.90
20973;DHT22;10645;52.370;13.314;2024-03-02T04:12:04;6.80;99.90
20973;DHT22;10645;52.370;13.314;2024-03-02T04:14:30;6.80;99.90
20973;DHT22;10645;52.370;13.314;2024-03-02T04:16:57;6.80;99.90
20973;DHT22;10645;52.370;13.314;2024-03-02T04:19:23;6.80;99.90
20973;DHT22;10645;52.370;13.314;2024-03-02T04:21:49;6.80;99.90
20973;DHT22;10645;52.370;13.314;2024-03-02T04:24:15;6.80;99.90
20973;DHT22;10645;52.370;13.314;2024-03-02T04:26:41;6.90;99.90
20973;DHT22;10645;52.370;13.314;2024-03-02T04:29:07;6.90;99.90
20973;DHT22;10645;52.370;13.314;2024-03-02T04:31:33;6.90;99.90
20973;DHT22;10645;52.370;13.314;2024-03-02T04:33:59;6.90;99.90
20973;DHT22;10645;52.370;13.314;2024-03-02T04:36:25;6.90;99.90
20973;DHT22;10645;52.370;13.314;2024-03-02T04:38:51;6.90;99.90
20973;DHT22;10645;52.370;13.314;2024-03-02T04:41:18;6.90;99.90
20973;DHT22;10645;52.370;13.314;2024-03-02T04:43:44;7.00;99.90
20973;DHT22;10645;52.370;13.314;2024-03-02T04:46:11;7.00;99.90
20973;DHT22;10645;52.370;13.314;2024-03-02T04:48:37;7.10;99.90
20973;DHT22;10645;52.370;13.314;2024-03-02T04:51:03;7.00;99.90
20973;DHT22;10645;52.370;13.314;2024-03-02T04:53:29;7.00;99.90
20973;DHT22;10645;52.370;13.314;2024-03-02T04:55:55;7.10;99.90
20973;DHT22;10645;52.370;13.314;2024-03-02T04:58:22;7.10;99.90
20973;DHT22;10645;52.370;13.314;2024-03-02T05:00:48;7.10;99.90
20973;DHT22;10645;52.370;13.314;2024-03-02T05:03:14;7.10;99.90
20973;DHT22;10645;52.370;13.314;2024-03-02T05:05:40;7.20;99.90
20973;DHT22;10645;52.370;13.314;2024-03-02T05:08:06;7.20;99.90
20973;DHT22;10645;52.370;13.314;2024-03-02T05:10:32;7.20;99.90
20973;DHT22;10645;52.370;13.314;2024-03-02T05:12:58;7.20;99.90
20973;DHT22;10645;52.370;13.314;2024-03-02T05:15:25;7.30;99.90
20973;DHT22;10645;52.370;13.314;2024-03-02T05:17:52;7.30;99.90
20973;DHT22;10645;52.370;13.314;2024-03-02T05:20:19;7.30;99.90
20973;DHT22;10645;52.370;13.314;2024-03-02T05:22:46;7.40;99.90
20973;DHT22;10645;52.370;13.314;2024-03-02T05:25:13;7.40;99.90
20973;DHT22;10645;52.370;13.314;2024-03-02T05:27:39;7.40;99.90
20973;DHT22;10645;52.370;13.314;2024-03-02T05:30:06;7.40;99.90
20973;DHT22;10645;52.370;13.314;2024-03-02T05:32:36;7.40;99.90
20973;DHT22;10645;52.370;13.314;2024-03-02T05:35:02;7.40;99.90
20973;DHT22;10645;52.370;13.314;2024-03-02T05:37:29;7.40;99.90
20973;DHT22;10645;52.370;13.314;2024-03-02T05:39:55;7.40;99.90
20973;DHT22;10645;52.370;13.314;2024-03-02T05:42:22;7.40;99.90
20973;DHT22;10645;52.370;13.314;2024-03-02T05:44:49;7.40;99.90
20973;DHT22;10645;52.370;13.314;2024-03-02T05:47:15;7.40;99.90
20973;DHT22;10645;52.370;13.314;2024-03-02T05:49:42;7.40;99.90
20973;DHT22;10645;52.370;13.314;2024-03-02T05:52:09;7.40;99.90
20973;DHT22;10645;52.370;13.314;2024-03-02T05:54:37;7.40;99.90
20973;DHT22;10645;52.370;13.314;2024-03-02T05:57:04;7.40;99.90
20973;DHT22;10645;52.370;13.314;2024-03-02T05:59:49;7.40;99.90
20973;DHT22;10645;52.370;13.314;2024-03-02T06:02:15;7.40;99.90
20973;DHT22;10645;52.370;13.314;2024-03-02T06:04:41;7.40;99.90
20973;DHT22;10645;52.370;13.314;2024-03-02T06:07:08;7.40;99.90
20973;DHT22;10645;52.370;13.314;2024-03-02T06:09:34;7.40;99.90
20973;DHT22;10645;52.370;13.314;2024-03-02T06:12:00;7.30;99.90
20973;DHT22;10645;52.370;13.314;2024-03-02T06:14:27;7.40;99.90
20973;DHT22;10645;52.370;13.314;2024-03-02T06:16:53;7.30;99.90
20973;DHT22;10645;52.370;13.314;2024-03-02T06:19:19;7.40;99.90
20973;DHT22;10645;52.370;13.314;2024-03-02T06:21:46;7.40;99.90
20973;DHT22;10645;52.370;13.314;2024-03-02T06:24:12;7.40;99.90
20973;DHT22;10645;52.370;13.314;2024-03-02T06:26:38;7.40;99.90
20973;DHT22;10645;52.370;13.314;2024-03-02T06:29:05;7.50;99.90
20973;DHT22;10645;52.370;13.314;2024-03-02T06:31:31;7.50;99.90
20973;DHT22;10645;52.370;13.314;2024-03-02T06:33:58;7.50;99.90
20973;DHT22;10645;52.370;13.314;2024-03-02T06:36:24;7.50;99.90
20973;DHT22;10645;52.370;13.314;2024-03-02T06:38:51;7.50;99.90
20973;DHT22;10645;52.370;13.314;2024-03-02T06:41:17;7.50;99.90
20973;DHT22;10645;52.370;13.314;2024-03-02T06:43:44;7.40;99.90
20973;DHT22;10645;52.370;13.314;2024-03-02T06:46:10;7.50;99.90
20973;DHT22;10645;52.370;13.314;2024-03-02T06:48:40;7.50;99.90
20973;DHT22;10645;52.370;13.314;2024-03-02T06:51:06;7.50;99.90
20973;DHT22;10645;52.370;13.314;2024-03-02T06:53:32;7.60;99.90
20973;DHT22;10645;52.370;13.314;2024-03-02T06:55:59;7.60;99.90
20973;DHT22;10645;52.370;13.314;2024-03-02T06:58:26;7.60;99.90
20973;DHT22;10645;52.370;13.314;2024-03-02T07:00:53;7.60;99.90
20973;DHT22;10645;52.370;13.314;2024-03-02T07:03:19;7.70;99.90
20973;DHT22;10645;52.370;13.314;2024-03-02T07:05:45;7.70;99.90
20973;DHT22;10645;52.370;13.314;2024-03-02T07:08:11;7.70;99.90
20973;DHT22;10645;52.370;13.314;2024-03-02T07:10:37;7.70;99.90
20973;DHT22;10645;52.370;13.314;2024-03-02T07:13:03;7.70;99.90
20973;DHT22;10645;52.370;13.314;2024-03-02T07:15:29;7.70;99.90
20973;DHT22;10645;52.370;13.314;2024-03-02T07:18:14;7.70;99.90
20973;DHT22;10645;52.370;13.314;2024-03-02T07:20:40;7.80;99.90
20973;DHT22;10645;52.370;13.314;2024-03-02T07:23:06;7.80;99.90
20973;DHT22;10645;52.370;13.314;2024-03-02T07:25:32;7.90;99.90
20973;DHT22;10645;52.370;13.314;2024-03-02T07:27:59;7.90;99.90
20973;DHT22;10645;52.370;13.314;2024-03-02T07:30:25;7.90;99.90
20973;DHT22;10645;52.370;13.314;2024-03-02T07:32:51;7.90;99.90
20973;DHT22;10645;52.370;13.314;2024-03-02T07:35:17;7.90;99.90
20973;DHT22;10645;52.370;13.314;2024-03-02T07:37:44;8.00;99.90
20973;DHT22;10645;52.370;13.314;2024-03-02T07:40:11;8.00;99.90
20973;DHT22;10645;52.370;13.314;2024-03-02T07:42:41;8.00;99.90
20973;DHT22;10645;52.370;13.314;2024-03-02T07:45:07;8.00;99.90
20973;DHT22;10645;52.370;13.314;2024-03-02T07:47:34;8.10;99.90
20973;DHT22;10645;52.370;13.314;2024-03-02T07:50:01;8.10;99.90
20973;DHT22;10645;52.370;13.314;2024-03-02T07:52:27;8.10;99.90
20973;DHT22;10645;52.370;13.314;2024-03-02T07:54:53;8.10;99.90
20973;DHT22;10645;52.370;13.314;2024-03-02T07:57:21;8.20;99.90
20973;DHT22;10645;52.370;13.314;2024-03-02T07:59:47;8.20;99.90
20973;DHT22;10645;52.370;13.314;2024-03-02T08:02:13;8.30;99.90
20973;DHT22;10645;52.370;13.314;2024-03-02T08:04:39;8.40;99.90
20973;DHT22;10645;52.370;13.314;2024-03-02T08:07:06;8.40;99.90
20973;DHT22;10645;52.370;13.314;2024-03-02T08:09:32;8.50;99.90
20973;DHT22;10645;52.370;13.314;2024-03-02T08:11:58;8.50;99.90
20973;DHT22;10645;52.370;13.314;2024-03-02T08:14:24;8.50;99.90
20973;DHT22;10645;52.370;13.314;2024-03-02T08:16:50;8.50;99.90
20973;DHT22;10645;52.370;13.314;2024-03-02T08:19:16;8.50;99.90
20973;DHT22;10645;52.370;13.314;2024-03-02T08:21:43;8.50;99.90
20973;DHT22;10645;52.370;13.314;2024-03-02T08:24:09;8.50;99.90
20973;DHT22;10645;52.370;13.314;2024-03-02T08:26:35;8.40;99.90
20973;DHT22;10645;52.370;13.314;2024-03-02T08:29:02;8.50;99.90
20973;DHT22;10645;52.370;13.314;2024-03-02T08:31:30;8.40;99.90
20973;DHT22;10645;52.370;13.314;2024-03-02T08:33:56;8.40;99.90
20973;DHT22;10645;52.370;13.314;2024-03-02T08:36:23;8.40;99.90
20973;DHT22;10645;52.370;13.314;2024-03-02T08:38:50;8.40;99.90
20973;DHT22;10645;52.370;13.314;2024-03-02T08:41:16;8.40;99.90
20973;DHT22;10645;52.370;13.314;2024-03-02T08:43:42;8.40;99.90
20973;DHT22;10645;52.370;13.314;2024-03-02T08:46:09;8.40;99.90
20973;DHT22;10645;52.370;13.314;2024-03-02T08:48:35;8.40;99.90
20973;DHT22;10645;52.370;13.314;2024-03-02T08:51:01;8.40;99.90
20973;DHT22;10645;52.370;13.314;2024-03-02T08:53:28;8.40;99.90
20973;DHT22;10645;52.370;13.314;2024-03-02T08:55:54;8.40;99.90
20973;DHT22;10645;52.370;13.314;2024-03-02T08:58:21;8.40;99.90
20973;DHT22;10645;52.370;13.314;2024-03-02T09:00:48;8.40;99.90
20973;DHT22;10645;52.370;13.314;2024-03-02T09:03:14;8.50;99.90
20973;DHT22;10645;52.370;13.314;2024-03-02T09:05:40;8.50;99.90
20973;DHT22;10645;52.370;13.314;2024-03-02T09:08:06;8.50;99.90
20973;DHT22;10645;52.370;13.314;2024-03-02T09:10:33;8.50;99.90
20973;DHT22;10645;52.370;13.314;2024-03-02T09:12:59;8.60;99.90
20973;DHT22;10645;52.370;13.314;2024-03-02T09:15:25;8.70;99.90
20973;DHT22;10645;52.370;13.314;2024-03-02T09:17:51;8.70;99.90
20973;DHT22;10645;52.370;13.314;2024-03-02T09:20:17;8.70;99.90
20973;DHT22;10645;52.370;13.314;2024-03-02T09:22:43;8.80;99.90
20973;DHT22;10645;52.370;13.314;2024-03-02T09:25:09;8.90;99.90
20973;DHT22;10645;52.370;13.314;2024-03-02T09:27:39;8.90;99.90
20973;DHT22;10645;52.370;13.314;2024-03-02T09:30:07;9.00;99.90
20973;DHT22;10645;52.370;13.314;2024-03-02T09:32:34;9.00;99.90
20973;DHT22;10645;52.370;13.314;2024-03-02T09:35:00;9.10;99.90
20973;DHT22;10645;52.370;13.314;2024-03-02T09:37:26;9.20;99.90
20973;DHT22;10645;52.370;13.314;2024-03-02T09:39:54;9.30;99.90
20973;DHT22;10645;52.370;13.314;2024-03-02T09:42:21;9.30;99.90
20973;DHT22;10645;52.370;13.314;2024-03-02T09:44:48;9.40;99.90
20973;DHT22;10645;52.370;13.314;2024-03-02T09:47:14;9.50;99.90
20973;DHT22;10645;52.370;13.314;2024-03-02T09:49:40;9.60;99.90
20973;DHT22;10645;52.370;13.314;2024-03-02T09:52:07;9.80;99.90
20973;DHT22;10645;52.370;13.314;2024-03-02T09:54:33;9.70;99.90
20973;DHT22;10645;52.370;13.314;2024-03-02T09:56:59;9.80;99.90
20973;DHT22;10645;52.370;13.314;2024-03-02T09:59:27;9.90;99.90
20973;DHT22;10645;52.370;13.314;2024-03-02T10:01:59;10.00;99.90
20973;DHT22;10645;52.370;13.314;2024-03-02T10:04:26;10.00;99.90
20973;DHT22;10645;52.370;13.314;2024-03-02T10:07:09;10.10;99.90
20973;DHT22;10645;52.370;13.314;2024-03-02T10:09:36;10.10;99.90
20973;DHT22;10645;52.370;13.314;2024-03-02T10:12:07;10.10;99.90
20973;DHT22;10645;52.370;13.314;2024-03-02T10:14:34;10.30;99.90
20973;DHT22;10645;52.370;13.314;2024-03-02T10:17:05;10.30;99.90
20973;DHT22;10645;52.370;13.314;2024-03-02T10:19:32;10.40;99.90
20973;DHT22;10645;52.370;13.314;2024-03-02T10:21:59;10.40;99.90
20973;DHT22;10645;52.370;13.314;2024-03-02T10:24:25;10.50;99.90
20973;DHT22;10645;52.370;13.314;2024-03-02T10:26:52;10.50;99.90
20973;DHT22;10645;52.370;13.314;2024-03-02T10:29:18;10.60;99.90
20973;DHT22;10645;52.370;13.314;2024-03-02T10:31:45;10.80;99.90
20973;DHT22;10645;52.370;13.314;2024-03-02T10:34:13;10.90;99.90
20973;DHT22;10645;52.370;13.314;2024-03-02T10:36:43;11.00;99.90
20973;DHT22;10645;52.370;13.314;2024-03-02T10:39:10;11.10;99.90
20973;DHT22;10645;52.370;13.314;2024-03-02T10:41:37;11.00;99.90
20973;DHT22;10645;52.370;13.314;2024-03-02T10:44:05;11.20;99.90
20973;DHT22;10645;52.370;13.314;2024-03-02T10:46:33;11.50;99.90
20973;DHT22;10645;52.370;13.314;2024-03-02T10:49:00;11.60;99.90
20973;DHT22;10645;52.370;13.314;2024-03-02T10:51:27;11.80;99.90
20973;DHT22;10645;52.370;13.314;2024-03-02T10:53:55;11.80;99.90
20973;DHT22;10645;52.370;13.314;2024-03-02T10:56:38;11.80;99.90
20973;DHT22;10645;52.370;13.314;2024-03-02T11:01:50;12.00;99.90
20973;DHT22;10645;52.370;13.314;2024-03-02T11:04:18;12.20;99.90
20973;DHT22;10645;52.370;13.314;2024-03-02T11:06:48;12.50;99.90
20973;DHT22;10645;52.370;13.314;2024-03-02T11:09:15;12.60;99.90
20973;DHT22;10645;52.370;13.314;2024-03-02T11:11:43;12.60;99.90
20973;DHT22;10645;52.370;13.314;2024-03-02T11:14:13;12.70;99.90
20973;DHT22;10645;52.370;13.314;2024-03-02T11:16:40;12.80;99.90
20973;DHT22;10645;52.370;13.314;2024-03-02T11:19:12;13.10;99.90
20973;DHT22;10645;52.370;13.314;2024-03-02T11:21:39;13.10;99.90
20973;DHT22;10645;52.370;13.314;2024-03-02T11:26:47;13.20;99.90
20973;DHT22;10645;52.370;13.314;2024-03-02T11:32:03;13.40;99.90
20973;DHT22;10645;52.370;13.314;2024-03-02T11:34:36;13.40;99.90
20973;DHT22;10645;52.370;13.314;2024-03-02T11:37:05;13.30;99.90
20973;DHT22;10645;52.370;13.314;2024-03-02T11:39:31;13.20;99.90
20973;DHT22;10645;52.370;13.314;2024-03-02T11:41:58;13.30;99.90
20973;DHT22;10645;52.370;13.314;2024-03-02T11:44:28;13.30;99.90
20973;DHT22;10645;52.370;13.314;2024-03-02T11:47:02;13.30;99.90
20973;DHT22;10645;52.370;13.314;2024-03-02T11:49:39;13.20;99.90
20973;DHT22;10645;52.370;13.314;2024-03-02T11:52:07;13.40;99.90
20973;DHT22;10645;52.370;13.314;2024-03-02T11:54:33;13.50;99.90
20973;DHT22;10645;52.370;13.314;2024-03-02T11:57:02;13.40;99.90
20973;DHT22;10645;52.370;13.314;2024-03-02T11:59:29;13.40;99.90
20973;DHT22;10645;52.370;13.314;2024-03-02T12:01:56;13.50;99.90
20973;DHT22;10645;52.370;13.314;2024-03-02T12:04:23;13.30;99.90
20973;DHT22;10645;52.370;13.314;2024-03-02T12:06:58;13.40;99.90
20973;DHT22;10645;52.370;13.314;2024-03-02T12:09:28;13.40;99.90
20973;DHT22;10645;52.370;13.314;2024-03-02T12:12:04;13.30;99.90
20973;DHT22;10645;52.370;13.314;2024-03-02T12:14:32;13.30;99.90
20973;DHT22;10645;52.370;13.314;2024-03-02T12:16:58;13.40;99.90
20973;DHT22;10645;52.370;13.314;2024-03-02T12:19:25;13.60;99.90
20973;DHT22;10645;52.370;13.314;2024-03-02T12:21:53;13.60;99.90
20973;DHT22;10645;52.370;13.314;2024-03-02T12:24:20;13.70;99.90
20973;DHT22;10645;52.370;13.314;2024-03-02T12:26:46;13.70;99.90
20973;DHT22;10645;52.370;13.314;2024-03-02T12:29:14;13.80;99.90
20973;DHT22;10645;52.370;13.314;2024-03-02T12:31:42;13.90;99.90
20973;DHT22;10645;52.370;13.314;2024-03-02T12:34:13;13.90;99.90
20973;DHT22;10645;52.370;13.314;2024-03-02T12:36:40;13.90;99.90
20973;DHT22;10645;52.370;13.314;2024-03-02T12:39:10;14.10;99.90
20973;DHT22;10645;52.370;13.314;2024-03-02T12:41:37;14.20;99.90
20973;DHT22;10645;52.370;13.314;2024-03-02T12:44:06;14.50;99.90
20973;DHT22;10645;52.370;13.314;2024-03-02T12:46:32;14.40;99.90
20973;DHT22;10645;52.370;13.314;2024-03-02T12:49:04;14.50;99.90
20973;DHT22;10645;52.370;13.314;2024-03-02T12:51:30;14.70;99.90
20973;DHT22;10645;52.370;13.314;2024-03-02T12:53:57;14.70;99.90
20973;DHT22;10645;52.370;13.314;2024-03-02T12:56:27;14.90;99.90
20973;DHT22;10645;52.370;13.314;2024-03-02T12:58:56;14.90;99.90
20973;DHT22;10645;52.370;13.314;2024-03-02T13:01:23;14.80;99.90
20973;DHT22;10645;52.370;13.314;2024-03-02T13:03:50;14.70;99.90
20973;DHT22;10645;52.370;13.314;2024-03-02T13:06:21;14.50;99.90
20973;DHT22;10645;52.370;13.314;2024-03-02T13:08:53;14.40;99.90
20973;DHT22;10645;52.370;13.314;2024-03-02T13:11:21;14.40;99.90
20973;DHT22;10645;52.370;13.314;2024-03-02T13:13:47;14.30;99.90
20973;DHT22;10645;52.370;13.314;2024-03-02T13:16:13;14.30;99.90
20973;DHT22;10645;52.370;13.314;2024-03-02T13:18:42;14.20;99.90
20973;DHT22;10645;52.370;13.314;2024-03-02T13:21:08;14.30;99.90
20973;DHT22;10645;52.370;13.314;2024-03-02T13:23:34;14.30;99.90
20973;DHT22;10645;52.370;13.314;2024-03-02T13:26:01;14.40;99.90
20973;DHT22;10645;52.370;13.314;2024-03-02T13:28:27;14.30;99.90
20973;DHT22;10645;52.370;13.314;2024-03-02T13:30:54;14.40;99.90
20973;DHT22;10645;52.370;13.314;2024-03-02T13:33:20;14.40;99.90
20973;DHT22;10645;52.370;13.314;2024-03-02T13:35:49;14.40;99.90
20973;DHT22;10645;52.370;13.314;2024-03-02T13:38:19;14.30;99.90
20973;DHT22;10645;52.370;13.314;2024-03-02T13:40:48;14.10;99.90
20973;DHT22;10645;52.370;13.314;2024-03-02T13:43:18;14.20;99.90
20973;DHT22;10645;52.370;13.314;2024-03-02T13:45:45;14.10;99.90
20973;DHT22;10645;52.370;13.314;2024-03-02T13:48:11;14.10;99.90
20973;DHT22;10645;52.370;13.314;2024-03-02T13:50:37;14.20;99.90
20973;DHT22;10645;52.370;13.314;2024-03-02T13:53:03;14.20;99.90
20973;DHT22;10645;52.370;13.314;2024-03-02T13:55:30;14.30;99.90
20973;DHT22;10645;52.370;13.314;2024-03-02T13:57:56;14.40;99.90
20973;DHT22;10645;52.370;13.314;2024-03-02T14:00:22;14.40;99.90
20973;DHT22;10645;52.370;13.314;2024-03-02T14:02:48;14.60;99.90
20973;DHT22;10645;52.370;13.314;2024-03-02T14:05:17;14.50;99.90
20973;DHT22;10645;52.370;13.314;2024-03-02T14:07:45;14.60;99.90
20973;DHT22;10645;52.370;13.314;2024-03-02T14:10:11;14.50;99.90
20973;DHT22;10645;52.370;13.314;2024-03-02T14:12:38;14.50;99.90
20973;DHT22;10645;52.370;13.314;2024-03-02T14:15:05;14.40;99.90
20973;DHT22;10645;52.370;13.314;2024-03-02T14:17:31;14.30;99.90
20973;DHT22;10645;52.370;13.314;2024-03-02T14:20:00;14.20;99.90
20973;DHT22;10645;52.370;13.314;2024-03-02T14:22:26;14.10;99.90
20973;DHT22;10645;52.370;13.314;2024-03-02T14:24:52;14.00;99.90
20973;DHT22;10645;52.370;13.314;2024-03-02T14:27:18;13.90;99.90
20973;DHT22;10645;52.370;13.314;2024-03-02T14:29:44;14.00;99.90
20973;DHT22;10645;52.370;13.314;2024-03-02T14:32:11;13.80;99.90
20973;DHT22;10645;52.370;13.314;2024-03-02T14:34:37;13.70;99.90
20973;DHT22;10645;52.370;13.314;2024-03-02T14:37:04;13.60;99.90
20973;DHT22;10645;52.370;13.314;2024-03-02T14:39:31;13.60;99.90
20973;DHT22;10645;52.370;13.314;2024-03-02T14:42:01;13.50;99.90
20973;DHT22;10645;52.370;13.314;2024-03-02T14:44:28;13.40;99.90
20973;DHT22;10645;52.370;13.314;2024-03-02T14:46:54;13.40;99.90
20973;DHT22;10645;52.370;13.314;2024-03-02T14:49:20;13.30;99.90
20973;DHT22;10645;52.370;13.314;2024-03-02T14:51:47;13.30;99.90
20973;DHT22;10645;52.370;13.314;2024-03-02T14:54:15;13.20;99.90
20973;DHT22;10645;52.370;13.314;2024-03-02T14:56:41;13.20;99.90
20973;DHT22;10645;52.370;13.314;2024-03-02T14:59:07;13.20;99.90
20973;DHT22;10645;52.370;13.314;2024-03-02T15:01:33;13.20;99.90
20973;DHT22;10645;52.370;13.314;2024-03-02T15:03:59;13.20;99.90
20973;DHT22;10645;52.370;13.314;2024-03-02T15:06:26;13.20;99.90
20973;DHT22;10645;52.370;13.314;2024-03-02T15:08:52;13.20;99.90
20973;DHT22;10645;52.370;13.314;2024-03-02T15:11:20;13.30;99.90
20973;DHT22;10645;52.370;13.314;2024-03-02T15:13:53;13.30;99.90
20973;DHT22;10645;52.370;13.314;2024-03-02T15:16:20;13.30;99.90
20973;DHT22;10645;52.370;13.314;2024-03-02T15:18:49;13.40;99.90
20973;DHT22;10645;52.370;13.314;2024-03-02T15:21:16;13.40;99.90
20973;DHT22;10645;52.370;13.314;2024-03-02T15:23:42;13.40;99.90
20973;DHT22;10645;52.370;13.314;2024-03-02T15:26:09;13.40;99.90
20973;DHT22;10645;52.370;13.314;2024-03-02T15:28:35;13.40;99.90
20973;DHT22;10645;52.370;13.314;2024-03-02T15:31:01;13.40;99.90
20973;DHT22;10645;52.370;13.314;2024-03-02T15:33:27;13.40;99.90
20973;DHT22;10645;52.370;13.314;2024-03-02T15:36:00;13.30;99.90